createdAt,value
2017-10-15T00:00:17.364Z,15.9
2017-10-15T00:02:17.310Z,8.4
2017-10-15T00:04:17.254Z,7.9
2017-10-15T00:06:17.199Z,13.3
2017-10-15T00:08:17.116Z,7
2017-10-15T00:10:18.058Z,6.4
2017-10-15T00:12:16.965Z,7.5
2017-10-15T00:14:16.921Z,7.8
2017-10-15T00:16:17.876Z,7.5
2017-10-15T00:18:16.781Z,8.2
2017-10-15T00:20:17.712Z,10.4
2017-10-15T00:22:17.661Z,8.5
2017-10-15T00:24:17.591Z,9.6
2017-10-15T00:26:17.535Z,8.1
2017-10-15T00:28:17.464Z,7.8
2017-10-15T00:30:17.422Z,11.7
2017-10-15T00:32:17.357Z,8.9
2017-10-15T00:34:17.308Z,11.3
2017-10-15T00:36:18.281Z,8.1
2017-10-15T00:38:17.174Z,7.5
2017-10-15T00:40:18.175Z,15.1
2017-10-15T00:42:17.106Z,5.7
2017-10-15T00:44:16.996Z,7.4
2017-10-15T00:46:17.973Z,10.6
2017-10-15T00:48:16.881Z,9.9
2017-10-15T00:50:17.829Z,9.1
2017-10-15T00:52:17.760Z,7.8
2017-10-15T00:54:17.688Z,8.1
2017-10-15T00:56:17.657Z,8.1
2017-10-15T00:58:17.538Z,12
2017-10-15T01:00:17.507Z,13.5
2017-10-15T01:02:17.432Z,8.8
2017-10-15T01:04:17.341Z,12.9
2017-10-15T01:06:17.270Z,8.7
2017-10-15T01:08:17.199Z,9.4
2017-10-15T01:10:18.153Z,8.9
2017-10-15T01:12:17.070Z,12.3
2017-10-15T01:14:17.035Z,9.1
2017-10-15T01:18:17.862Z,8.4
2017-10-15T01:20:17.819Z,6
2017-10-15T01:22:17.740Z,11.4
2017-10-15T01:24:17.698Z,6.6
2017-10-15T01:26:17.614Z,12.3
2017-10-15T01:28:17.527Z,10.3
2017-10-15T01:30:17.466Z,6.2
2017-10-15T01:32:17.382Z,8.1
2017-10-15T01:36:18.280Z,14.6
2017-10-15T01:38:17.220Z,8
2017-10-15T01:40:18.134Z,9.4
2017-10-15T01:42:17.079Z,9.4
2017-10-15T01:44:17.005Z,11.3
2017-10-15T01:46:17.939Z,7.9
2017-10-15T01:48:16.871Z,11.8
2017-10-15T01:50:17.810Z,10
2017-10-15T01:52:17.743Z,9.3
2017-10-15T01:54:17.658Z,7.2
2017-10-15T01:56:17.562Z,10.1
2017-10-15T01:58:17.502Z,10.7
2017-10-15T02:00:17.430Z,13.6
2017-10-15T02:02:17.345Z,8.8
2017-10-15T02:04:17.267Z,8
2017-10-15T02:06:18.200Z,8.3
2017-10-15T02:08:17.124Z,9.4
2017-10-15T02:10:18.016Z,8.1
2017-10-15T02:12:16.965Z,8.2
2017-10-15T02:14:16.897Z,9
2017-10-15T02:16:17.821Z,5.9
2017-10-15T02:18:17.731Z,6.2
2017-10-15T02:20:17.638Z,11.4
2017-10-15T02:22:17.549Z,15.5
2017-10-15T02:24:17.477Z,13
2017-10-15T02:26:18.389Z,9.1
2017-10-15T02:28:17.337Z,10.5
2017-10-15T02:30:17.228Z,12.2
2017-10-15T02:32:17.179Z,13.8
2017-10-15T02:34:17.059Z,13.8
2017-10-15T02:36:17.996Z,11.6
2017-10-15T02:38:16.920Z,8.7
2017-10-15T02:40:17.810Z,13.4
2017-10-15T02:42:17.728Z,12.6
2017-10-15T02:44:17.666Z,14.1
2017-10-15T02:46:17.581Z,12.3
2017-10-15T02:48:17.500Z,9.7
2017-10-15T02:50:17.418Z,9.5
2017-10-15T02:52:17.333Z,10.5
2017-10-15T02:54:17.238Z,13
2017-10-15T02:56:18.453Z,17.3
2017-10-15T02:58:18.034Z,13.6
2017-10-15T03:00:17.022Z,14.2
2017-10-15T03:02:16.889Z,7.8
2017-10-15T03:04:17.774Z,8.2
2017-10-15T03:06:17.682Z,15.4
2017-10-15T03:08:17.613Z,11.2
2017-10-15T03:10:17.521Z,10.9
2017-10-15T03:12:17.447Z,11.6
2017-10-15T03:14:17.370Z,10.1
2017-10-15T03:16:17.322Z,10.9
2017-10-15T03:18:17.212Z,9.2
2017-10-15T03:20:17.124Z,16.7
2017-10-15T03:22:17.043Z,9.8
2017-10-15T03:24:16.980Z,10.1
2017-10-15T03:26:17.895Z,12.5
2017-10-15T03:28:17.831Z,11.6
2017-10-15T03:30:17.736Z,12.2
2017-10-15T03:32:17.647Z,9
2017-10-15T03:34:17.563Z,12.4
2017-10-15T03:36:17.493Z,7.7
2017-10-15T03:38:17.414Z,10.3
2017-10-15T03:40:18.333Z,7.8
2017-10-15T03:42:17.257Z,10.2
2017-10-15T03:44:17.206Z,6.3
2017-10-15T03:46:17.087Z,9.9
2017-10-15T03:48:17.006Z,10.4
2017-10-15T03:50:16.921Z,8.9
2017-10-15T03:52:17.823Z,8.3
2017-10-15T03:54:17.744Z,11
2017-10-15T03:56:17.685Z,8.4
2017-10-15T03:58:17.587Z,12.9
2017-10-15T04:00:17.538Z,16.8
2017-10-15T04:02:17.463Z,8
2017-10-15T04:04:17.366Z,8.4
2017-10-15T04:06:17.295Z,10.8
2017-10-15T04:08:17.210Z,7.9
2017-10-15T04:10:18.162Z,8.3
2017-10-15T04:12:17.064Z,10
2017-10-15T04:14:16.987Z,8.2
2017-10-15T04:16:16.881Z,11.8
2017-10-15T04:18:16.839Z,9.5
2017-10-15T04:20:18.673Z,12.3
2017-10-15T04:22:17.595Z,9.1
2017-10-15T04:24:17.521Z,10
2017-10-15T04:26:17.434Z,10.6
2017-10-15T04:28:17.305Z,10.4
2017-10-15T04:30:17.214Z,15.2
2017-10-15T04:32:17.092Z,8.8
2017-10-15T04:34:17.006Z,10.8
2017-10-15T04:36:17.926Z,9.2
2017-10-15T04:38:17.827Z,7.7
2017-10-15T04:40:17.735Z,11.9
2017-10-15T04:42:17.634Z,11.6
2017-10-15T04:44:17.548Z,10.6
2017-10-15T04:46:17.468Z,11.2
2017-10-15T04:48:17.351Z,11.7
2017-10-15T04:50:17.267Z,10.1
2017-10-15T04:52:17.194Z,9.5
2017-10-15T04:54:17.092Z,17.9
2017-10-15T04:56:18.008Z,10.1
2017-10-15T04:58:16.916Z,10.9
2017-10-15T05:00:17.800Z,9.8
2017-10-15T05:02:17.726Z,9
2017-10-15T05:04:17.628Z,9.2
2017-10-15T05:06:17.540Z,6.8
2017-10-15T05:08:17.437Z,6.4
2017-10-15T05:10:17.349Z,8
2017-10-15T05:12:17.253Z,11.5
2017-10-15T05:14:17.187Z,10.6
2017-10-15T05:16:17.073Z,7.3
2017-10-15T05:18:17.037Z,13.7
2017-10-15T05:20:16.902Z,14.1
2017-10-15T05:22:17.830Z,10.3
2017-10-15T05:24:17.743Z,8.8
2017-10-15T05:26:17.679Z,9.2
2017-10-15T05:28:17.569Z,6.1
2017-10-15T05:30:17.509Z,6.2
2017-10-15T05:32:17.453Z,11.8
2017-10-15T05:34:17.369Z,9.3
2017-10-15T05:36:18.287Z,8.4
2017-10-15T05:38:17.211Z,11
2017-10-15T05:40:18.129Z,8.3
2017-10-15T05:42:17.042Z,8.2
2017-10-15T05:44:16.947Z,14.9
2017-10-15T05:46:17.872Z,7.9
2017-10-15T05:48:17.793Z,8.4
2017-10-15T05:50:17.706Z,6.6
2017-10-15T05:52:17.634Z,6.5
2017-10-15T05:54:17.561Z,8.9
2017-10-15T05:56:17.476Z,6.4
2017-10-15T05:58:17.404Z,5.6
2017-10-15T06:00:17.276Z,7.1
2017-10-15T06:02:17.224Z,9.5
2017-10-15T06:04:17.128Z,8.3
2017-10-15T06:06:18.038Z,10.1
2017-10-15T06:08:16.975Z,7
2017-10-15T06:10:17.877Z,8.2
2017-10-15T06:12:17.775Z,5.6
2017-10-15T06:14:17.696Z,9.1
2017-10-15T06:16:17.592Z,10.5
2017-10-15T06:18:17.500Z,12.1
2017-10-15T06:20:17.435Z,8.8
2017-10-15T06:22:17.355Z,8.4
2017-10-15T06:24:17.247Z,7.6
2017-10-15T06:26:18.140Z,7
2017-10-15T06:28:17.075Z,7.4
2017-10-15T06:30:16.978Z,9
2017-10-15T06:32:16.874Z,17.1
2017-10-15T06:34:17.775Z,11.3
2017-10-15T06:36:17.670Z,11.4
2017-10-15T06:38:17.592Z,10.3
2017-10-15T06:40:17.515Z,11.4
2017-10-15T06:42:17.389Z,10.8
2017-10-15T06:44:17.339Z,10.8
2017-10-15T06:46:17.233Z,14
2017-10-15T06:48:18.155Z,13.6
2017-10-15T06:50:17.068Z,9.4
2017-10-15T06:52:16.953Z,8.6
2017-10-15T06:54:16.852Z,9
2017-10-15T06:56:17.793Z,10
2017-10-15T06:58:17.701Z,10.8
2017-10-15T07:00:17.619Z,11.3
2017-10-15T07:02:17.504Z,11.4
2017-10-15T07:04:17.390Z,8.7
2017-10-15T07:06:17.327Z,9.2
2017-10-15T07:08:17.220Z,9.9
2017-10-15T07:10:18.159Z,8.7
2017-10-15T07:12:17.049Z,9.8
2017-10-15T07:14:16.964Z,7.3
2017-10-15T07:16:17.898Z,7.2
2017-10-15T07:18:16.802Z,8
2017-10-15T07:20:17.751Z,7.5
2017-10-15T07:22:17.663Z,8.1
2017-10-15T07:24:17.619Z,6.7
2017-10-15T07:26:18.524Z,12
2017-10-15T07:28:17.466Z,9.5
2017-10-15T07:30:17.370Z,10.6
2017-10-15T07:32:17.339Z,7.7
2017-10-15T07:34:17.290Z,6.7
2017-10-15T07:36:18.216Z,6.3
2017-10-15T07:38:17.121Z,9.5
2017-10-15T07:40:18.076Z,5.4
2017-10-15T07:44:17.985Z,6.5
2017-10-15T07:46:17.932Z,6.5
2017-10-15T07:48:16.890Z,12.2
2017-10-15T07:50:17.810Z,5.4
2017-10-15T07:52:17.748Z,8
2017-10-15T07:54:17.718Z,12.2
2017-10-15T07:56:17.665Z,6
2017-10-15T07:58:17.578Z,7.5
2017-10-15T08:00:17.565Z,6.3
2017-10-15T08:02:17.530Z,11.2
2017-10-15T08:04:17.482Z,9.3
2017-10-15T08:06:17.411Z,9.3
2017-10-15T08:08:17.377Z,8.9
2017-10-15T08:10:18.335Z,7.9
2017-10-15T08:12:17.315Z,8.2
2017-10-15T08:14:17.290Z,8.5
2017-10-15T08:16:17.251Z,7.4
2017-10-15T08:18:17.247Z,11.9
2017-10-15T08:20:17.230Z,9.5
2017-10-15T08:22:17.216Z,9.6
2017-10-15T08:24:17.192Z,15.5
2017-10-15T08:26:17.170Z,14.9
2017-10-15T08:28:17.157Z,13.9
2017-10-15T08:30:17.121Z,11.1
2017-10-15T08:32:17.151Z,9.4
2017-10-15T08:34:17.124Z,8.3
2017-10-15T08:36:17.087Z,11.1
2017-10-15T08:38:17.060Z,8.2
2017-10-15T08:40:18.093Z,10.2
2017-10-15T08:42:17.085Z,9.8
2017-10-15T08:44:17.071Z,12
2017-10-15T08:46:18.055Z,14.5
2017-10-15T08:48:17.080Z,16.4
2017-10-15T08:50:17.050Z,14.9
2017-10-15T08:52:17.084Z,14.4
2017-10-15T08:54:17.068Z,14.6
2017-10-15T08:56:18.082Z,10.8
2017-10-15T08:58:17.085Z,10.9
2017-10-15T09:00:17.098Z,12.8
2017-10-15T09:02:17.090Z,11.3
2017-10-15T09:04:17.103Z,14.7
2017-10-15T09:06:18.165Z,13.6
2017-10-15T09:08:17.154Z,11
2017-10-15T09:10:18.162Z,10.1
2017-10-15T09:12:17.156Z,10.3
2017-10-15T09:14:17.181Z,14.6
2017-10-15T09:16:17.155Z,14.1
2017-10-15T09:18:17.197Z,12.8
2017-10-15T09:20:17.177Z,10.1
2017-10-15T09:22:17.228Z,21.3
2017-10-15T09:24:17.232Z,12.7
2017-10-15T09:26:18.290Z,9.8
2017-10-15T09:28:17.316Z,15.4
2017-10-15T09:30:17.311Z,10.6
2017-10-15T09:32:17.349Z,17.7
2017-10-15T09:34:17.398Z,22.3
2017-10-15T09:36:17.437Z,13.8
2017-10-15T09:38:17.463Z,15.3
2017-10-15T09:40:17.502Z,16
2017-10-15T09:42:17.558Z,20.7
2017-10-15T09:44:17.581Z,20.9
2017-10-15T09:46:17.672Z,17.6
2017-10-15T09:48:17.681Z,14.2
2017-10-15T09:50:17.723Z,17.4
2017-10-15T09:52:17.776Z,18.5
2017-10-15T09:54:17.849Z,16.1
2017-10-15T09:56:17.880Z,25.7
2017-10-15T09:58:17.936Z,16.8
2017-10-15T10:00:16.969Z,22.1
2017-10-15T10:02:17.022Z,21
2017-10-15T10:04:17.083Z,16.8
2017-10-15T10:06:17.091Z,19.6
2017-10-15T10:08:17.165Z,16.8
2017-10-15T10:10:18.184Z,21.8
2017-10-15T10:12:17.277Z,15
2017-10-15T10:14:17.318Z,21.3
2017-10-15T10:16:17.390Z,17.1
2017-10-15T10:18:17.433Z,13.9
2017-10-15T10:20:17.497Z,14.4
2017-10-15T10:22:17.538Z,12.3
2017-10-15T10:24:17.612Z,17.5
2017-10-15T10:26:17.681Z,13.5
2017-10-15T10:28:17.722Z,13.6
2017-10-15T10:30:17.795Z,19.4
2017-10-15T10:32:17.871Z,15
2017-10-15T10:34:17.945Z,13.7
2017-10-15T10:36:18.011Z,12.2
2017-10-15T10:38:17.070Z,21.4
2017-10-15T10:40:18.188Z,19.5
2017-10-15T10:42:17.219Z,20.1
2017-10-15T10:44:17.308Z,16.6
2017-10-15T10:46:18.380Z,18.8
2017-10-15T10:48:17.462Z,16.4
2017-10-15T10:50:17.513Z,18.5
2017-10-15T10:52:17.598Z,17.1
2017-10-15T10:54:17.684Z,17.7
2017-10-15T10:56:17.748Z,11.3
2017-10-15T10:58:17.821Z,18.3
2017-10-15T11:00:17.907Z,16
2017-10-15T11:02:17.963Z,22.9
2017-10-15T11:04:17.074Z,20
2017-10-15T11:06:18.173Z,17.8
2017-10-15T11:08:17.247Z,10.5
2017-10-15T11:10:18.345Z,17.8
2017-10-15T11:12:17.431Z,15.7
2017-10-15T11:14:17.509Z,17.7
2017-10-15T11:16:17.572Z,17.1
2017-10-15T11:18:17.699Z,14
2017-10-15T11:20:17.748Z,16.3
2017-10-15T11:22:17.855Z,13.6
2017-10-15T11:24:17.937Z,13.2
2017-10-15T11:26:18.044Z,14.6
2017-10-15T11:28:17.124Z,13.7
2017-10-15T11:30:17.198Z,19.7
2017-10-15T11:32:17.308Z,14.2
2017-10-15T11:34:17.396Z,21.4
2017-10-15T11:36:17.532Z,16.9
2017-10-15T11:38:17.632Z,17.4
2017-10-15T11:40:17.727Z,12.8
2017-10-15T11:42:17.812Z,12.9
2017-10-15T11:44:17.901Z,13.9
2017-10-15T11:46:18.001Z,11.7
2017-10-15T11:48:17.121Z,10.5
2017-10-15T11:50:17.233Z,12.4
2017-10-15T11:52:17.326Z,14.3
2017-10-15T11:54:17.472Z,14.4
2017-10-15T11:56:17.580Z,11.7
2017-10-15T11:58:17.680Z,11
2017-10-15T12:00:17.817Z,12.4
2017-10-15T12:02:17.944Z,10.7
2017-10-15T12:04:17.062Z,12.4
2017-10-15T12:06:17.210Z,10.4
2017-10-15T12:08:17.333Z,6.5
2017-10-15T12:10:18.450Z,11.2
2017-10-15T12:12:17.541Z,8.7
2017-10-15T12:14:17.706Z,10.8
2017-10-15T12:16:17.841Z,10.5
2017-10-15T12:18:17.954Z,9.5
2017-10-15T12:20:17.099Z,6.5
2017-10-15T12:22:17.228Z,7.8
2017-10-15T12:24:17.376Z,9.7
2017-10-15T12:26:17.548Z,7.1
2017-10-15T12:28:17.673Z,8.2
2017-10-15T12:30:17.880Z,14.8
2017-10-15T12:32:17.997Z,15.7
2017-10-15T12:34:17.147Z,10
2017-10-15T12:36:17.293Z,6.3
2017-10-15T12:38:17.450Z,8.9
2017-10-15T12:40:17.619Z,6.3
2017-10-15T12:42:17.799Z,5.4
2017-10-15T12:44:17.951Z,10
2017-10-15T12:46:18.146Z,7.3
2017-10-15T12:48:17.298Z,7.6
2017-10-15T12:50:17.465Z,5.6
2017-10-15T12:52:17.655Z,10.4
2017-10-15T12:54:17.825Z,9.4
2017-10-15T12:56:18.053Z,2.2
2017-10-15T12:58:17.243Z,10.1
2017-10-15T13:00:17.470Z,1.7
2017-10-15T13:02:17.680Z,8.6
2017-10-15T13:04:17.914Z,5.4
2017-10-15T13:06:17.126Z,1.9
2017-10-15T13:08:17.369Z,6.8
2017-10-15T13:10:18.578Z,3.8
2017-10-15T13:12:17.845Z,2.4
2017-10-15T13:14:18.102Z,1.9
2017-10-15T13:16:18.369Z,4.4
2017-10-15T13:18:17.577Z,2.3
2017-10-15T13:20:17.840Z,1
2017-10-15T13:22:18.096Z,4
2017-10-15T13:24:17.355Z,4.3
2017-10-15T13:26:17.576Z,6.1
2017-10-15T13:28:17.865Z,2.6
2017-10-15T13:30:18.072Z,1.1
2017-10-15T13:32:17.315Z,1.1
2017-10-15T13:34:17.550Z,1.1
2017-10-15T13:36:17.711Z,4.3
2017-10-15T13:38:17.935Z,5.3
2017-10-15T13:40:18.177Z,3.9
2017-10-15T13:42:17.398Z,1.7
2017-10-15T13:44:17.621Z,1.1
2017-10-15T13:46:17.785Z,3.6
2017-10-15T13:48:18.010Z,9
2017-10-15T13:50:17.222Z,3.9
2017-10-15T13:52:17.426Z,2.4
2017-10-15T13:54:17.621Z,1.4
2017-10-15T13:56:17.823Z,2.5
2017-10-15T13:58:18.028Z,1.3
2017-10-15T14:00:17.228Z,2.3
2017-10-15T14:02:17.457Z,1.5
2017-10-15T14:04:17.647Z,6.7
2017-10-15T14:06:17.849Z,2
2017-10-15T14:08:18.026Z,7.5
2017-10-15T14:10:18.213Z,3.7
2017-10-15T14:12:17.424Z,1.9
2017-10-15T14:14:17.654Z,1.2
2017-10-15T14:16:17.835Z,4.6
2017-10-15T14:18:18.040Z,1.7
2017-10-15T14:20:17.260Z,1.9
2017-10-15T14:22:17.434Z,2.1
2017-10-15T14:24:17.636Z,2.4
2017-10-15T14:26:17.809Z,2.6
2017-10-15T14:28:18.023Z,3.2
2017-10-15T14:30:17.212Z,2.8
2017-10-15T14:32:17.404Z,4.1
2017-10-15T14:34:17.607Z,3.2
2017-10-15T14:36:17.775Z,1.6
2017-10-15T14:38:18.020Z,4.6
2017-10-15T14:40:18.170Z,7.7
2017-10-15T14:42:17.402Z,2.3
2017-10-15T14:44:17.562Z,6.7
2017-10-15T14:46:17.770Z,2.6
2017-10-15T14:48:17.920Z,2.7
2017-10-15T14:50:18.133Z,5.4
2017-10-15T14:52:17.304Z,1.2
2017-10-15T14:54:17.499Z,9.7
2017-10-15T14:56:18.660Z,5.8
2017-10-15T14:58:17.842Z,1.5
2017-10-15T15:00:18.065Z,4.6
2017-10-15T15:02:17.247Z,1.3
2017-10-15T15:04:17.464Z,4.9
2017-10-15T15:06:17.618Z,3.1
2017-10-15T15:08:17.816Z,2.2
2017-10-15T15:10:17.993Z,7.4
2017-10-15T15:12:17.141Z,2.9
2017-10-15T15:14:17.366Z,2.2
2017-10-15T15:16:17.551Z,2.7
2017-10-15T15:18:17.711Z,6.7
2017-10-15T15:20:17.935Z,3.1
2017-10-15T15:22:17.127Z,2.9
2017-10-15T15:24:17.313Z,2.3
2017-10-15T15:26:17.515Z,3.4
2017-10-15T15:28:17.685Z,5.3
2017-10-15T15:30:17.876Z,2.5
2017-10-15T15:32:18.046Z,2.8
2017-10-15T15:34:17.206Z,6.3
2017-10-15T15:36:17.408Z,2.4
2017-10-15T15:38:17.597Z,2.3
2017-10-15T15:40:17.746Z,2.7
2017-10-15T15:42:17.886Z,2
2017-10-15T15:44:18.069Z,2.1
2017-10-15T15:46:17.185Z,2.1
2017-10-15T15:48:17.335Z,2.6
2017-10-15T15:50:17.500Z,3.9
2017-10-15T15:52:17.646Z,9.4
2017-10-15T15:54:17.794Z,3.6
2017-10-15T15:56:17.926Z,4.8
2017-10-15T15:58:18.048Z,6.8
2017-10-15T16:00:17.212Z,3.6
2017-10-15T16:02:17.321Z,2.4
2017-10-15T16:04:17.462Z,4.2
2017-10-15T16:06:17.575Z,2.6
2017-10-15T16:08:17.699Z,7.9
2017-10-15T16:10:17.819Z,4.3
2017-10-15T16:12:17.949Z,2.7
2017-10-15T16:14:17.042Z,11.3
2017-10-15T16:16:17.144Z,4.8
2017-10-15T16:18:17.255Z,5.7
2017-10-15T16:20:17.364Z,3.2
2017-10-15T16:22:17.459Z,5.6
2017-10-15T16:24:17.583Z,8.7
2017-10-15T16:26:17.691Z,2.3
2017-10-15T16:28:17.778Z,7.2
2017-10-15T16:30:17.874Z,6.8
2017-10-15T16:32:17.954Z,3.6
2017-10-15T16:34:17.053Z,5.1
2017-10-15T16:36:18.133Z,5.1
2017-10-15T16:38:17.218Z,4.5
2017-10-15T16:40:18.306Z,2.8
2017-10-15T16:42:17.440Z,6
2017-10-15T16:44:17.484Z,9
2017-10-15T16:46:17.591Z,8.4
2017-10-15T16:48:17.662Z,8.9
2017-10-15T16:50:17.759Z,6.9
2017-10-15T16:52:17.840Z,11
2017-10-15T16:54:17.902Z,7.8
2017-10-15T16:56:17.976Z,6.3
2017-10-15T16:58:17.088Z,8.7
2017-10-15T17:00:17.188Z,4.1
2017-10-15T17:02:17.258Z,10.3
2017-10-15T17:04:17.322Z,5.4
2017-10-15T17:06:17.413Z,7.2
2017-10-15T17:08:17.476Z,10.7
2017-10-15T17:10:17.531Z,3.8
2017-10-15T17:12:17.639Z,8
2017-10-15T17:14:17.702Z,3.8
2017-10-15T17:16:17.756Z,4.9
2017-10-15T17:18:17.857Z,6.6
2017-10-15T17:20:17.879Z,3
2017-10-15T17:22:17.933Z,3.5
2017-10-15T17:24:17.047Z,6.3
2017-10-15T17:26:18.133Z,11
2017-10-15T17:28:17.167Z,4.9
2017-10-15T17:30:17.259Z,5.8
2017-10-15T17:32:17.323Z,5.6
2017-10-15T17:34:17.378Z,4.3
2017-10-15T17:36:17.447Z,6.6
2017-10-15T17:38:17.493Z,5.1
2017-10-15T17:40:17.571Z,3.7
2017-10-15T17:42:17.612Z,5.7
2017-10-15T17:44:17.657Z,5.4
2017-10-15T17:46:17.763Z,5.8
2017-10-15T17:48:17.769Z,9.8
2017-10-15T17:50:17.862Z,8.1
2017-10-15T17:52:17.895Z,9.1
2017-10-15T17:54:17.947Z,11.2
2017-10-15T17:56:18.012Z,9.1
2017-10-15T17:58:17.022Z,11.3
2017-10-15T18:00:17.094Z,25
2017-10-15T18:02:17.124Z,24.2
2017-10-15T18:04:17.171Z,14.8
2017-10-15T18:06:18.219Z,19.1
2017-10-15T18:08:17.254Z,14.8
2017-10-15T18:10:18.306Z,13
2017-10-15T18:12:17.502Z,13.4
2017-10-15T18:14:17.341Z,9.9
2017-10-15T18:16:17.396Z,13.4
2017-10-15T18:18:17.430Z,8.7
2017-10-15T18:20:17.468Z,12.6
2017-10-15T18:22:17.523Z,10.4
2017-10-15T18:24:17.541Z,6.8
2017-10-15T18:26:18.548Z,10.5
2017-10-15T18:28:17.599Z,7
2017-10-15T18:30:17.620Z,6.9
2017-10-15T18:32:17.664Z,15.4
2017-10-15T18:34:17.657Z,6
2017-10-15T18:36:17.684Z,12.9
2017-10-15T18:40:18.687Z,6.2
2017-10-15T18:42:17.725Z,8.2
2017-10-15T18:44:17.732Z,7.3
2017-10-15T18:46:17.762Z,11.9
2017-10-15T18:48:17.776Z,9.7
2017-10-15T18:50:17.798Z,6.4
2017-10-15T18:52:17.795Z,8
2017-10-15T18:54:17.811Z,7.9
2017-10-15T18:56:17.817Z,10.1
2017-10-15T18:58:17.821Z,11.4
2017-10-15T19:00:17.832Z,6.9
2017-10-15T19:02:17.836Z,9.8
2017-10-15T19:04:17.846Z,5.9
2017-10-15T19:06:16.842Z,7.4
2017-10-15T19:08:17.831Z,7.6
2017-10-15T19:10:17.880Z,7.8
2017-10-15T19:12:17.866Z,7
2017-10-15T19:14:17.852Z,6.1
2017-10-15T19:16:17.907Z,5.7
2017-10-15T19:18:16.862Z,8.7
2017-10-15T19:20:17.889Z,6.6
2017-10-15T19:22:17.884Z,10.6
2017-10-15T19:24:17.890Z,6.7
2017-10-15T19:26:17.895Z,5.7
2017-10-15T19:28:17.894Z,11.9
2017-10-15T19:30:17.893Z,4.8
2017-10-15T19:32:17.869Z,9
2017-10-15T19:34:17.905Z,9
2017-10-15T19:38:17.871Z,7.6
2017-10-15T19:40:17.868Z,9.4
2017-10-15T19:42:17.885Z,8.3
2017-10-15T19:44:17.873Z,8.6
2017-10-15T19:48:17.911Z,5.1
2017-10-15T19:50:17.907Z,9.3
2017-10-15T19:52:17.914Z,6.2
2017-10-15T19:54:17.893Z,7.2
2017-10-15T19:56:17.897Z,5.6
2017-10-15T19:58:17.920Z,7.5
2017-10-15T20:00:17.899Z,7.2
2017-10-15T20:02:17.923Z,7.6
2017-10-15T20:04:17.919Z,7.9
2017-10-15T20:06:17.891Z,9.1
2017-10-15T20:08:17.927Z,6.2
2017-10-15T20:10:17.931Z,4.6
2017-10-15T20:12:16.910Z,5.5
2017-10-15T20:14:17.936Z,6.6
2017-10-15T20:16:17.932Z,4.5
2017-10-15T20:18:16.954Z,20.8
2017-10-15T20:20:16.965Z,15.3
2017-10-15T20:22:16.969Z,7.6
2017-10-15T20:24:16.917Z,7
2017-10-15T20:26:17.919Z,6.2
2017-10-15T20:28:17.917Z,4.7
2017-10-15T20:30:17.911Z,7.6
2017-10-15T20:32:17.924Z,3.8
2017-10-15T20:34:17.887Z,5.6
2017-10-15T20:36:17.904Z,3.8
2017-10-15T20:38:17.902Z,3.7
2017-10-15T20:40:17.874Z,5.6
2017-10-15T20:42:17.909Z,7.7
2017-10-15T20:44:17.893Z,4.7
2017-10-15T20:46:17.859Z,6.3
2017-10-15T20:48:17.852Z,3.9
2017-10-15T20:50:17.850Z,7.2
2017-10-15T20:52:17.829Z,6.3
2017-10-15T20:54:17.865Z,6.6
2017-10-15T20:56:17.825Z,8.9
2017-10-15T20:58:17.845Z,4.5
2017-10-15T21:00:17.835Z,4.6
2017-10-15T21:02:17.820Z,5.8
2017-10-15T21:04:17.831Z,5.8
2017-10-15T21:06:17.811Z,7.8
2017-10-15T21:08:17.829Z,6.9
2017-10-15T21:10:17.850Z,7.3
2017-10-15T21:12:17.805Z,8.9
2017-10-15T21:14:17.787Z,9.5
2017-10-15T21:16:17.769Z,8.6
2017-10-15T21:18:17.764Z,5.4
2017-10-15T21:20:17.717Z,7.7
2017-10-15T21:22:17.689Z,5.3
2017-10-15T21:24:17.674Z,6.3
2017-10-15T21:26:17.640Z,6
2017-10-15T21:28:17.647Z,6.2
2017-10-15T21:30:17.611Z,7.7
2017-10-15T21:32:17.575Z,6.3
2017-10-15T21:34:17.568Z,8.7
2017-10-15T21:36:17.525Z,7.5
2017-10-15T21:38:17.515Z,5.4
2017-10-15T21:40:17.480Z,6.8
2017-10-15T21:42:17.475Z,8.7
2017-10-15T21:44:17.409Z,9.5
2017-10-15T21:46:17.400Z,5.7
2017-10-15T21:48:17.373Z,4.8
2017-10-15T21:50:17.338Z,6.9
2017-10-15T21:52:17.328Z,5.3
2017-10-15T21:54:17.261Z,4.6
2017-10-15T21:56:18.232Z,9.9
2017-10-15T21:58:17.252Z,3.8
2017-10-15T22:00:21.186Z,5.2
2017-10-15T22:02:17.194Z,3.9
2017-10-15T22:04:17.139Z,6.8
2017-10-15T22:06:18.074Z,7
2017-10-15T22:08:17.041Z,6.3
2017-10-15T22:10:18.007Z,4.2
2017-10-15T22:12:16.985Z,6.6
2017-10-15T22:14:16.971Z,5.5
2017-10-15T22:16:17.900Z,7.4
2017-10-15T22:18:16.878Z,4.7
2017-10-15T22:20:18.843Z,3.9
2017-10-15T22:22:17.801Z,6
2017-10-15T22:24:17.783Z,9.2
2017-10-15T22:26:17.767Z,4.9
2017-10-15T22:28:17.716Z,5.6
2017-10-15T22:30:17.700Z,6.3
2017-10-15T22:34:17.616Z,7.3
2017-10-15T22:36:17.573Z,10.4
2017-10-15T22:38:17.584Z,5.4
2017-10-15T22:40:17.492Z,12.5
2017-10-15T22:42:17.482Z,4.3
2017-10-15T22:44:17.415Z,5.6
2017-10-15T22:46:17.373Z,16.7
2017-10-15T22:48:17.338Z,5.6
2017-10-15T22:50:17.301Z,5.2
2017-10-15T22:52:17.272Z,6.1
2017-10-15T22:54:17.230Z,3.4
2017-10-15T22:56:18.191Z,3.9
2017-10-15T22:58:17.149Z,8.5
2017-10-15T23:00:17.098Z,3.5
2017-10-15T23:02:17.075Z,6.6
2017-10-15T23:04:17.058Z,3.6
2017-10-15T23:06:18.010Z,6.2
2017-10-15T23:08:16.932Z,4.7
2017-10-15T23:10:17.897Z,3.9
2017-10-15T23:12:17.877Z,4.6
2017-10-15T23:14:17.821Z,6.3
2017-10-15T23:16:17.778Z,5
2017-10-15T23:18:17.751Z,4.1
2017-10-15T23:20:17.697Z,3.7
2017-10-15T23:22:17.659Z,3.5
2017-10-15T23:24:17.603Z,5.7
2017-10-15T23:26:17.579Z,3.1
2017-10-15T23:28:17.491Z,4.2
2017-10-15T23:30:17.462Z,4.4
2017-10-15T23:32:17.426Z,3.8
2017-10-15T23:34:17.353Z,8.1
2017-10-15T23:36:18.291Z,3.1
2017-10-15T23:38:17.264Z,4.2
2017-10-15T23:40:18.210Z,3.3
2017-10-15T23:42:17.158Z,3.9
2017-10-15T23:44:17.121Z,6.2
2017-10-15T23:46:18.097Z,3.7
2017-10-15T23:48:17.074Z,4.2
2017-10-15T23:50:16.997Z,3.6
2017-10-15T23:52:16.959Z,5
2017-10-15T23:54:16.883Z,4.1
2017-10-15T23:56:17.851Z,4
2017-10-15T23:58:17.798Z,6
